createdAt,value
2022-10-19T00:01:06.900Z,8.15
2022-10-19T00:03:35.415Z,6.68
2022-10-19T00:06:25.688Z,8.50
2022-10-19T00:08:57.762Z,6.97
2022-10-19T00:11:25.087Z,12.68
2022-10-19T00:13:53.484Z,6.47
2022-10-19T00:16:21.104Z,6.82
2022-10-19T00:18:47.880Z,5.93
2022-10-19T00:21:17.709Z,4.90
2022-10-19T00:23:45.389Z,5.47
2022-10-19T00:26:13.124Z,5.05
2022-10-19T00:28:40.435Z,4.53
2022-10-19T00:31:10.935Z,4.55
2022-10-19T00:33:37.940Z,5.75
2022-10-19T00:36:05.298Z,4.88
2022-10-19T00:38:32.683Z,5.70
2022-10-19T00:40:59.447Z,4.07
2022-10-19T00:43:31.267Z,4.90
2022-10-19T00:45:58.050Z,4.40
2022-10-19T00:48:29.778Z,3.60
2022-10-19T00:50:58.892Z,4.20
2022-10-19T00:53:28.804Z,5.85
2022-10-19T00:55:57.252Z,3.90
2022-10-19T00:58:24.419Z,4.28
2022-10-19T01:00:51.280Z,4.30
2022-10-19T01:03:18.288Z,4.78
2022-10-19T01:05:45.093Z,4.22
2022-10-19T01:08:12.270Z,4.97
2022-10-19T01:10:58.513Z,5.47
2022-10-19T01:13:29.837Z,7.38
2022-10-19T01:16:15.258Z,6.18
2022-10-19T01:18:54.359Z,5.47
2022-10-19T01:21:29.141Z,5.82
2022-10-19T01:24:02.531Z,7.00
2022-10-19T01:26:41.425Z,7.20
2022-10-19T01:29:34.157Z,8.73
2022-10-19T01:32:07.214Z,6.35
2022-10-19T01:34:37.657Z,7.97
2022-10-19T01:37:48.138Z,10.23
2022-10-19T01:40:17.623Z,7.40
2022-10-19T01:42:59.841Z,5.45
2022-10-19T01:45:46.856Z,7.53
2022-10-19T01:48:18.987Z,9.25
2022-10-19T01:51:00.444Z,9.55
2022-10-19T01:53:30.277Z,9.05
2022-10-19T01:55:58.865Z,8.05
2022-10-19T01:58:30.475Z,9.30
2022-10-19T02:01:01.805Z,9.25
2022-10-19T02:03:29.736Z,10.88
2022-10-19T02:05:58.052Z,8.48
2022-10-19T02:08:38.492Z,9.32
2022-10-19T02:11:05.712Z,9.40
2022-10-19T02:13:34.048Z,9.63
2022-10-19T02:16:06.531Z,8.10
2022-10-19T02:18:37.669Z,8.05
2022-10-19T02:21:06.060Z,8.73
2022-10-19T02:23:33.153Z,8.02
2022-10-19T02:25:59.973Z,8.77
2022-10-19T02:28:28.310Z,7.97
2022-10-19T02:30:55.210Z,8.48
2022-10-19T02:33:22.365Z,7.78
2022-10-19T02:35:49.344Z,7.95
2022-10-19T02:38:21.616Z,7.15
2022-10-19T02:41:11.268Z,6.30
2022-10-19T02:43:41.733Z,7.10
2022-10-19T02:46:20.427Z,5.43
2022-10-19T02:48:49.895Z,6.72
2022-10-19T02:51:40.277Z,7.95
2022-10-19T02:54:08.358Z,6.22
2022-10-19T02:56:35.677Z,5.95
2022-10-19T02:59:03.006Z,5.18
2022-10-19T03:01:29.907Z,4.57
2022-10-19T03:03:56.688Z,5.22
2022-10-19T03:06:23.432Z,5.68
2022-10-19T03:08:50.715Z,3.92
2022-10-19T03:11:17.512Z,5.35
2022-10-19T03:13:44.322Z,4.85
2022-10-19T03:16:13.045Z,4.15
2022-10-19T03:18:40.584Z,3.67
2022-10-19T03:21:09.939Z,4.45
2022-10-19T03:23:37.716Z,5.22
2022-10-19T03:26:07.567Z,4.22
2022-10-19T03:28:36.830Z,3.80
2022-10-19T03:31:03.652Z,5.40
2022-10-19T03:33:30.449Z,5.28
2022-10-19T03:36:14.197Z,4.55
2022-10-19T03:38:41.173Z,4.35
2022-10-19T03:41:08.987Z,4.03
2022-10-19T03:43:36.091Z,3.72
2022-10-19T03:46:03.175Z,3.50
2022-10-19T03:48:30.040Z,3.42
2022-10-19T03:51:01.490Z,3.70
2022-10-19T03:53:32.564Z,4.18
2022-10-19T03:56:08.420Z,3.72
2022-10-19T03:58:37.701Z,3.47
2022-10-19T04:01:10.679Z,3.80
2022-10-19T04:03:37.709Z,5.53
2022-10-19T04:06:06.848Z,4.07
2022-10-19T04:08:34.453Z,4.00
2022-10-19T04:11:03.977Z,3.53
2022-10-19T04:13:31.465Z,3.47
2022-10-19T04:15:58.720Z,3.80
2022-10-19T04:18:25.507Z,6.20
2022-10-19T04:21:03.868Z,3.30
2022-10-19T04:23:33.449Z,3.30
2022-10-19T04:26:10.073Z,3.05
2022-10-19T04:28:36.943Z,3.60
2022-10-19T04:31:05.225Z,3.83
2022-10-19T04:33:33.626Z,3.80
2022-10-19T04:36:01.951Z,4.72
2022-10-19T04:38:29.766Z,4.53
2022-10-19T04:41:00.645Z,3.35
2022-10-19T04:43:27.772Z,4.55
2022-10-19T04:45:54.609Z,5.43
2022-10-19T04:48:21.860Z,7.85
2022-10-19T04:50:48.668Z,5.68
2022-10-19T04:53:20.081Z,4.07
2022-10-19T04:55:46.885Z,3.97
2022-10-19T04:58:13.681Z,3.83
2022-10-19T05:00:40.537Z,4.18
2022-10-19T05:03:07.540Z,3.88
2022-10-19T05:05:34.540Z,4.05
2022-10-19T05:08:01.820Z,4.10
2022-10-19T05:10:28.632Z,4.20
2022-10-19T05:12:55.503Z,12.63
2022-10-19T05:15:22.957Z,4.47
2022-10-19T05:17:49.852Z,5.40
2022-10-19T05:20:16.796Z,4.70
2022-10-19T05:22:43.623Z,5.63
2022-10-19T05:25:10.410Z,4.93
2022-10-19T05:27:37.309Z,4.55
2022-10-19T05:30:06.423Z,4.72
2022-10-19T05:32:33.196Z,5.85
2022-10-19T05:35:00.372Z,4.85
2022-10-19T05:37:27.248Z,6.70
2022-10-19T05:39:55.429Z,5.97
2022-10-19T05:42:22.195Z,7.70
2022-10-19T05:44:48.947Z,7.15
2022-10-19T05:47:15.780Z,10.20
2022-10-19T05:49:42.622Z,9.27
2022-10-19T05:52:09.418Z,11.05
2022-10-19T05:54:37.109Z,8.73
2022-10-19T05:57:04.038Z,10.30
2022-10-19T05:59:31.052Z,10.65
2022-10-19T06:01:57.829Z,11.95
2022-10-19T06:04:25.080Z,12.02
2022-10-19T06:06:51.867Z,11.32
2022-10-19T06:09:18.647Z,10.82
2022-10-19T06:11:45.459Z,14.02
2022-10-19T06:14:15.433Z,11.57
2022-10-19T06:16:42.255Z,15.55
2022-10-19T06:19:09.146Z,13.13
2022-10-19T06:21:35.988Z,13.32
2022-10-19T06:24:05.362Z,12.13
2022-10-19T06:26:34.048Z,11.88
2022-10-19T06:29:01.748Z,14.27
2022-10-19T06:31:33.146Z,13.52
2022-10-19T06:34:00.478Z,14.13
2022-10-19T06:36:30.601Z,12.85
2022-10-19T06:38:59.612Z,11.63
2022-10-19T06:41:26.551Z,12.95
2022-10-19T06:43:54.694Z,10.07
2022-10-19T06:46:23.856Z,16.15
2022-10-19T06:48:56.131Z,12.38
2022-10-19T06:51:25.367Z,15.52
2022-10-19T06:53:56.558Z,13.20
2022-10-19T06:56:25.485Z,13.52
2022-10-19T06:58:53.028Z,13.35
2022-10-19T07:01:20.104Z,16.17
2022-10-19T07:03:47.225Z,15.85
2022-10-19T07:06:14.399Z,14.75
2022-10-19T07:08:42.630Z,13.10
2022-10-19T07:11:16.218Z,14.90
2022-10-19T07:13:43.044Z,15.97
2022-10-19T07:16:19.506Z,12.25
2022-10-19T07:18:48.732Z,19.15
2022-10-19T07:21:16.898Z,12.05
2022-10-19T07:23:45.251Z,15.32
2022-10-19T07:26:23.209Z,11.60
2022-10-19T07:28:50.939Z,14.30
2022-10-19T07:31:20.574Z,14.45
2022-10-19T07:33:51.771Z,12.55
2022-10-19T07:36:18.621Z,14.38
2022-10-19T07:38:45.405Z,15.13
2022-10-19T07:41:15.571Z,11.05
2022-10-19T07:43:44.561Z,14.52
2022-10-19T07:46:15.600Z,14.43
2022-10-19T07:48:43.148Z,15.65
2022-10-19T07:51:12.010Z,13.25
2022-10-19T07:53:39.514Z,19.60
2022-10-19T07:56:12.303Z,14.00
2022-10-19T07:58:40.215Z,15.13
2022-10-19T08:01:30.904Z,13.45
2022-10-19T08:04:49.071Z,14.55
2022-10-19T08:06:46.354Z,15.63
2022-10-19T08:09:27.617Z,12.93
2022-10-19T08:11:59.955Z,13.30
2022-10-19T08:14:26.865Z,17.13
2022-10-19T08:16:53.661Z,14.85
2022-10-19T08:19:22.521Z,12.63
2022-10-19T08:21:49.820Z,14.05
2022-10-19T08:24:19.029Z,11.93
2022-10-19T08:26:46.715Z,14.48
2022-10-19T08:29:19.448Z,15.63
2022-10-19T08:31:47.743Z,12.90
2022-10-19T08:34:15.464Z,11.00
2022-10-19T08:36:42.762Z,14.20
2022-10-19T08:39:12.629Z,15.48
2022-10-19T08:41:54.425Z,10.68
2022-10-19T08:44:24.071Z,11.30
2022-10-19T08:47:10.044Z,12.52
2022-10-19T08:49:39.387Z,13.93
2022-10-19T08:52:22.226Z,12.68
2022-10-19T08:54:57.979Z,10.55
2022-10-19T08:57:27.766Z,11.60
2022-10-19T09:00:00.374Z,13.02
2022-10-19T09:02:39.344Z,12.27
2022-10-19T09:05:21.640Z,12.80
2022-10-19T09:07:52.589Z,11.35
2022-10-19T09:10:22.650Z,13.13
2022-10-19T09:13:00.277Z,11.57
2022-10-19T09:15:39.860Z,10.52
2022-10-19T09:18:13.340Z,11.68
2022-10-19T09:20:44.473Z,13.57
2022-10-19T09:23:26.778Z,10.73
2022-10-19T09:25:55.962Z,9.80
2022-10-19T09:28:33.897Z,11.43
2022-10-19T09:31:12.635Z,10.48
2022-10-19T09:33:40.948Z,10.18
2022-10-19T09:36:08.313Z,12.20
2022-10-19T09:38:35.267Z,15.00
2022-10-19T09:41:18.852Z,10.30
2022-10-19T09:43:53.388Z,12.65
2022-10-19T09:46:39.551Z,9.02
2022-10-19T09:49:06.472Z,8.77
2022-10-19T09:51:44.817Z,10.38
2022-10-19T09:54:50.344Z,8.82
2022-10-19T09:57:23.455Z,9.02
2022-10-19T09:59:54.704Z,10.85
2022-10-19T10:02:30.498Z,12.10
2022-10-19T10:05:05.715Z,10.98
2022-10-19T10:07:39.868Z,9.25
2022-10-19T10:10:28.143Z,9.00
2022-10-19T10:12:59.751Z,13.88
2022-10-19T10:15:41.213Z,11.73
2022-10-19T10:18:13.759Z,10.90
2022-10-19T10:21:12.446Z,13.43
2022-10-19T10:23:39.421Z,10.10
2022-10-19T10:26:18.362Z,13.07
2022-10-19T10:28:51.057Z,10.40
2022-10-19T10:31:24.627Z,11.45
2022-10-19T10:34:11.137Z,9.53
2022-10-19T10:36:53.663Z,11.80
2022-10-19T10:39:20.623Z,10.68
2022-10-19T10:41:48.726Z,11.52
2022-10-19T10:44:22.361Z,9.60
2022-10-19T10:47:02.034Z,7.05
2022-10-19T10:49:36.616Z,7.05
2022-10-19T10:52:13.236Z,9.60
2022-10-19T10:54:40.483Z,7.63
2022-10-19T10:57:20.568Z,9.30
2022-10-19T10:59:51.921Z,8.70
2022-10-19T11:02:21.547Z,8.02
2022-10-19T11:04:55.517Z,8.10
2022-10-19T11:07:25.920Z,7.28
2022-10-19T11:09:57.286Z,10.13
2022-10-19T11:12:41.334Z,7.38
2022-10-19T11:15:22.795Z,11.25
2022-10-19T11:18:12.069Z,5.05
2022-10-19T11:20:55.236Z,6.13
2022-10-19T11:23:48.146Z,6.18
2022-10-19T11:26:42.959Z,5.70
2022-10-19T11:31:48.783Z,4.05
2022-10-19T11:34:27.664Z,5.50
2022-10-19T11:37:05.343Z,4.32
2022-10-19T11:39:32.108Z,4.10
2022-10-19T11:42:19.248Z,3.00
2022-10-19T11:45:13.015Z,2.95
2022-10-19T11:48:00.704Z,5.22
2022-10-19T11:50:54.296Z,3.35
2022-10-19T11:53:50.686Z,3.45
2022-10-19T11:56:39.105Z,2.92
2022-10-19T11:59:34.303Z,2.80
2022-10-19T12:02:25.383Z,2.53
2022-10-19T12:05:04.576Z,2.38
2022-10-19T12:07:55.874Z,5.22
2022-10-19T12:10:22.733Z,2.30
2022-10-19T12:12:53.550Z,2.42
2022-10-19T12:15:31.591Z,2.03
2022-10-19T12:18:10.101Z,2.35
2022-10-19T12:20:57.078Z,2.35
2022-10-19T12:23:36.587Z,2.47
2022-10-19T12:26:09.911Z,2.83
2022-10-19T12:28:40.314Z,2.90
2022-10-19T12:31:09.363Z,2.80
2022-10-19T12:34:00.481Z,2.67
2022-10-19T12:36:46.905Z,2.85
2022-10-19T12:39:19.748Z,5.25
2022-10-19T12:42:10.708Z,3.33
2022-10-19T12:45:09.968Z,4.72
2022-10-19T12:47:37.174Z,2.83
2022-10-19T12:50:04.520Z,2.55
2022-10-19T12:52:43.089Z,3.22
2022-10-19T12:55:15.929Z,4.32
2022-10-19T12:57:48.470Z,3.50
2022-10-19T13:00:24.802Z,4.47
2022-10-19T13:03:23.947Z,3.38
2022-10-19T13:05:58.718Z,3.35
2022-10-19T13:08:38.363Z,3.35
2022-10-19T13:11:14.814Z,2.97
2022-10-19T13:13:54.014Z,3.92
2022-10-19T13:16:30.175Z,3.40
2022-10-19T13:19:18.584Z,3.20
2022-10-19T13:21:51.181Z,4.57
2022-10-19T13:24:27.127Z,3.80
2022-10-19T13:27:02.901Z,4.65
2022-10-19T13:29:39.719Z,3.53
2022-10-19T13:32:45.268Z,6.50
2022-10-19T13:38:09.326Z,4.07
2022-10-19T13:40:38.752Z,4.28
2022-10-19T13:43:05.649Z,4.80
2022-10-19T13:45:32.640Z,4.85
2022-10-19T13:48:15.091Z,4.32
2022-10-19T13:50:51.445Z,8.07
2022-10-19T13:53:32.290Z,5.35
2022-10-19T13:56:20.829Z,3.90
2022-10-19T13:59:04.197Z,4.28
2022-10-19T14:02:18.896Z,8.95
2022-10-19T14:05:05.504Z,3.63
2022-10-19T14:08:01.471Z,3.80
2022-10-19T14:10:33.084Z,3.08
2022-10-19T14:13:11.000Z,3.78
2022-10-19T14:15:37.860Z,3.58
2022-10-19T14:18:32.070Z,3.33
2022-10-19T14:21:00.378Z,3.63
2022-10-19T14:23:34.196Z,3.75
2022-10-19T14:26:13.614Z,3.97
2022-10-19T14:28:42.970Z,3.40
2022-10-19T14:31:17.240Z,3.63
2022-10-19T14:33:49.889Z,3.90
2022-10-19T14:36:19.802Z,3.40
2022-10-19T14:38:49.095Z,3.70
2022-10-19T14:41:28.834Z,3.65
2022-10-19T14:44:00.262Z,2.97
2022-10-19T14:46:33.559Z,3.80
2022-10-19T14:49:05.462Z,8.90
2022-10-19T14:51:56.233Z,3.10
2022-10-19T14:54:36.953Z,2.83
2022-10-19T14:57:06.814Z,2.88
2022-10-19T14:59:46.384Z,3.10
2022-10-19T15:02:19.089Z,4.10
2022-10-19T15:04:46.919Z,3.30
2022-10-19T15:07:26.469Z,3.42
2022-10-19T15:09:57.850Z,2.80
2022-10-19T15:12:30.465Z,3.30
2022-10-19T15:14:58.041Z,8.43
2022-10-19T15:17:28.843Z,2.67
2022-10-19T15:19:58.423Z,4.45
2022-10-19T15:22:31.396Z,2.80
2022-10-19T15:25:07.132Z,4.00
2022-10-19T15:27:38.938Z,3.20
2022-10-19T15:30:29.533Z,2.92
2022-10-19T15:33:02.368Z,2.78
2022-10-19T15:35:38.363Z,3.30
2022-10-19T15:38:06.656Z,3.33
2022-10-19T15:40:39.243Z,3.20
2022-10-19T15:43:24.793Z,5.43
2022-10-19T15:46:02.288Z,3.90
2022-10-19T15:48:42.085Z,4.32
2022-10-19T15:51:27.132Z,3.97
2022-10-19T15:53:57.909Z,6.47
2022-10-19T15:56:28.272Z,4.57
2022-10-19T15:58:57.273Z,7.07
2022-10-19T16:01:27.290Z,3.90
2022-10-19T16:03:54.842Z,4.47
2022-10-19T16:06:47.012Z,5.50
2022-10-19T16:09:20.223Z,5.07
2022-10-19T16:11:47.964Z,4.60
2022-10-19T16:16:42.089Z,4.95
2022-10-19T16:19:10.440Z,6.05
2022-10-19T16:21:37.486Z,6.13
2022-10-19T16:24:05.635Z,6.15
2022-10-19T16:26:33.039Z,5.85
2022-10-19T16:29:01.314Z,6.28
2022-10-19T16:31:28.256Z,7.63
2022-10-19T16:33:55.051Z,7.00
2022-10-19T16:36:21.853Z,6.32
2022-10-19T16:38:48.857Z,6.25
2022-10-19T16:41:16.310Z,7.22
2022-10-19T16:43:43.469Z,5.97
2022-10-19T16:46:10.460Z,6.45
2022-10-19T16:48:38.261Z,6.65
2022-10-19T16:51:07.851Z,6.00
2022-10-19T16:53:35.534Z,5.65
2022-10-19T16:56:10.697Z,6.50
2022-10-19T16:58:37.724Z,5.90
2022-10-19T17:01:13.555Z,5.72
2022-10-19T17:03:40.391Z,8.02
2022-10-19T17:06:08.749Z,6.32
2022-10-19T17:08:36.843Z,9.82
2022-10-19T17:11:17.495Z,6.72
2022-10-19T17:13:46.005Z,6.43
2022-10-19T17:16:13.056Z,9.40
2022-10-19T17:18:40.171Z,7.35
2022-10-19T17:21:17.187Z,8.43
2022-10-19T17:23:44.916Z,6.63
2022-10-19T17:26:12.440Z,6.80
2022-10-19T17:28:40.367Z,9.52
2022-10-19T17:31:10.241Z,7.95
2022-10-19T17:33:37.795Z,7.40
2022-10-19T17:36:15.261Z,8.80
2022-10-19T17:38:42.433Z,8.48
2022-10-19T17:41:13.101Z,7.68
2022-10-19T17:43:41.857Z,13.73
2022-10-19T17:46:10.494Z,6.60
2022-10-19T17:48:38.706Z,9.35
2022-10-19T17:51:15.808Z,7.15
2022-10-19T17:53:44.808Z,7.15
2022-10-19T17:56:14.755Z,9.70
2022-10-19T17:58:42.521Z,6.93
2022-10-19T18:01:10.814Z,6.22
2022-10-19T18:03:38.984Z,8.38
2022-10-19T18:06:14.552Z,9.27
2022-10-19T18:08:45.386Z,8.02
2022-10-19T18:11:17.341Z,8.63
2022-10-19T18:13:44.907Z,9.35
2022-10-19T18:16:15.388Z,7.80
2022-10-19T18:18:45.966Z,6.82
2022-10-19T18:21:14.444Z,6.78
2022-10-19T18:23:41.368Z,8.43
2022-10-19T18:26:11.879Z,6.80
2022-10-19T18:28:39.216Z,6.68
2022-10-19T18:31:14.324Z,6.35
2022-10-19T18:33:41.655Z,6.00
2022-10-19T18:36:10.636Z,5.70
2022-10-19T18:38:38.988Z,6.30
2022-10-19T18:43:52.450Z,5.55
2022-10-19T18:46:21.123Z,6.30
2022-10-19T18:48:48.088Z,6.00
2022-10-19T18:51:15.856Z,6.85
2022-10-19T18:53:43.701Z,7.68
2022-10-19T18:56:12.622Z,8.18
2022-10-19T18:58:40.030Z,9.80
2022-10-19T19:01:14.571Z,7.72
2022-10-19T19:06:16.296Z,7.50
2022-10-19T19:11:18.060Z,7.13
2022-10-19T19:14:03.119Z,8.20
2022-10-19T19:18:59.581Z,6.10
2022-10-19T19:21:28.734Z,6.45
2022-10-19T19:23:59.269Z,7.10
2022-10-19T19:26:28.481Z,6.05
2022-10-19T19:28:57.597Z,6.10
2022-10-19T19:31:25.145Z,7.75
2022-10-19T19:33:52.423Z,5.90
2022-10-19T19:36:19.908Z,7.30
2022-10-19T19:38:48.972Z,5.70
2022-10-19T19:41:16.664Z,6.65
2022-10-19T19:43:43.798Z,5.72
2022-10-19T19:46:14.187Z,7.35
2022-10-19T19:48:43.418Z,5.75
2022-10-19T19:51:19.015Z,6.05
2022-10-19T19:53:47.840Z,8.43
2022-10-19T19:56:16.382Z,13.43
2022-10-19T19:58:45.047Z,13.45
2022-10-19T20:01:17.566Z,11.10
2022-10-19T20:03:45.890Z,7.72
2022-10-19T20:06:19.624Z,7.85
2022-10-19T20:08:49.137Z,7.32
2022-10-19T20:11:17.483Z,8.23
2022-10-19T20:13:45.559Z,6.78
2022-10-19T20:16:18.396Z,6.25
2022-10-19T20:18:47.669Z,6.85
2022-10-19T20:21:15.872Z,8.93
2022-10-19T20:23:46.635Z,6.55
2022-10-19T20:26:18.347Z,6.82
2022-10-19T20:28:45.975Z,7.78
2022-10-19T20:31:13.411Z,7.70
2022-10-19T20:33:42.470Z,6.78
2022-10-19T20:36:21.680Z,6.45
2022-10-19T20:38:56.624Z,6.50
2022-10-19T20:41:25.220Z,6.95
2022-10-19T20:43:53.696Z,7.35
2022-10-19T20:46:26.056Z,7.20
2022-10-19T20:48:54.688Z,7.55
2022-10-19T20:51:32.109Z,5.57
2022-10-19T20:54:01.757Z,6.00
2022-10-19T20:56:31.171Z,6.43
2022-10-19T20:59:00.579Z,6.65
2022-10-19T21:01:29.241Z,8.40
2022-10-19T21:04:00.482Z,6.78
2022-10-19T21:06:29.933Z,5.80
2022-10-19T21:08:57.668Z,6.72
2022-10-19T21:11:31.171Z,5.68
2022-10-19T21:14:00.640Z,7.28
2022-10-19T21:16:29.956Z,5.95
2022-10-19T21:18:57.397Z,5.93
2022-10-19T21:21:27.302Z,6.88
2022-10-19T21:23:59.589Z,5.65
2022-10-19T21:26:27.806Z,7.00
2022-10-19T21:28:55.281Z,5.60
2022-10-19T21:31:24.342Z,7.35
2022-10-19T21:33:52.244Z,6.95
2022-10-19T21:36:20.959Z,5.30
2022-10-19T21:38:48.311Z,5.25
2022-10-19T21:41:23.745Z,4.90
2022-10-19T21:43:53.460Z,5.55
2022-10-19T21:46:21.528Z,8.18
2022-10-19T21:48:49.302Z,6.57
2022-10-19T21:51:34.404Z,10.70
2022-10-19T21:54:02.584Z,7.72
2022-10-19T21:56:29.684Z,9.90
2022-10-19T21:58:56.904Z,5.90
2022-10-19T22:01:26.586Z,5.75
2022-10-19T22:04:01.432Z,7.32
2022-10-19T22:06:30.241Z,5.32
2022-10-19T22:08:57.648Z,6.95
2022-10-19T22:11:25.483Z,4.97
2022-10-19T22:13:56.902Z,6.85
2022-10-19T22:16:24.507Z,8.40
2022-10-19T22:18:51.950Z,6.43
2022-10-19T22:21:29.895Z,7.65
2022-10-19T22:24:02.301Z,5.70
2022-10-19T22:26:35.877Z,5.95
2022-10-19T22:29:04.467Z,9.43
2022-10-19T22:31:32.833Z,7.15
2022-10-19T22:34:09.833Z,5.38
2022-10-19T22:36:36.889Z,5.43
2022-10-19T22:39:04.544Z,5.63
2022-10-19T22:41:31.417Z,5.53
2022-10-19T22:43:58.254Z,6.10
2022-10-19T22:46:25.140Z,7.97
2022-10-19T22:48:51.892Z,6.28
2022-10-19T22:51:18.859Z,6.40
2022-10-19T22:53:45.607Z,9.98
2022-10-19T22:56:13.333Z,5.75
2022-10-19T22:58:40.173Z,6.47
2022-10-19T23:01:12.567Z,7.38
2022-10-19T23:03:40.345Z,7.22
2022-10-19T23:06:12.751Z,5.93
2022-10-19T23:08:39.911Z,9.02
2022-10-19T23:11:06.776Z,5.45
2022-10-19T23:13:33.661Z,6.53
2022-10-19T23:16:00.452Z,7.25
2022-10-19T23:18:29.873Z,7.40
2022-10-19T23:20:59.025Z,6.50
2022-10-19T23:23:26.167Z,9.90
2022-10-19T23:26:08.764Z,8.45
2022-10-19T23:28:37.383Z,6.72
2022-10-19T23:31:10.739Z,9.65
2022-10-19T23:33:37.893Z,8.13
2022-10-19T23:36:15.537Z,7.72
2022-10-19T23:38:46.899Z,7.43
2022-10-19T23:41:14.696Z,6.97
2022-10-19T23:43:42.216Z,6.05
2022-10-19T23:46:09.824Z,6.70
2022-10-19T23:48:37.561Z,6.85
2022-10-19T23:51:07.832Z,7.22
2022-10-19T23:53:40.755Z,9.63
2022-10-19T23:56:14.761Z,7.10
2022-10-19T23:58:42.181Z,7.25
